sensor_id;sensor_type;location;lat;lon;timestamp;P1;durP1;ratioP1;P2;durP2;ratioP2
52540;SDS011;56003;48.556;9.370;2022-08-27T00:09:32;1.43;;;1.23;;
52540;SDS011;56003;48.556;9.370;2022-08-27T00:12:31;0.90;;;0.90;;
52540;SDS011;56003;48.556;9.370;2022-08-27T00:15:37;1.73;;;1.20;;
52540;SDS011;56003;48.556;9.370;2022-08-27T00:18:08;2.40;;;2.00;;
52540;SDS011;56003;48.556;9.370;2022-08-27T00:20:37;1.17;;;1.17;;
52540;SDS011;56003;48.556;9.370;2022-08-27T00:23:17;1.20;;;1.10;;
52540;SDS011;56003;48.556;9.370;2022-08-27T00:25:49;0.70;;;0.60;;
52540;SDS011;56003;48.556;9.370;2022-08-27T00:28:25;1.00;;;0.90;;
52540;SDS011;56003;48.556;9.370;2022-08-27T00:31:20;2.57;;;2.27;;
52540;SDS011;56003;48.556;9.370;2022-08-27T00:37:50;0.93;;;0.93;;
52540;SDS011;56003;48.556;9.370;2022-08-27T00:40:45;1.83;;;1.70;;
52540;SDS011;56003;48.556;9.370;2022-08-27T00:43:41;1.50;;;1.00;;
52540;SDS011;56003;48.556;9.370;2022-08-27T00:50:08;1.50;;;1.40;;
52540;SDS011;56003;48.556;9.370;2022-08-27T00:52:50;2.03;;;1.77;;
52540;SDS011;56003;48.556;9.370;2022-08-27T00:56:02;1.60;;;1.53;;
52540;SDS011;56003;48.556;9.370;2022-08-27T01:02:09;1.33;;;1.23;;
52540;SDS011;56003;48.556;9.370;2022-08-27T01:04:53;1.80;;;1.63;;
52540;SDS011;56003;48.556;9.370;2022-08-27T01:07:49;1.50;;;1.40;;
52540;SDS011;56003;48.556;9.370;2022-08-27T01:20:54;1.57;;;1.47;;
52540;SDS011;56003;48.556;9.370;2022-08-27T01:24:07;1.53;;;0.80;;
52540;SDS011;56003;48.556;9.370;2022-08-27T01:27:25;1.17;;;1.07;;
52540;SDS011;56003;48.556;9.370;2022-08-27T01:33:59;1.00;;;1.00;;
52540;SDS011;56003;48.556;9.370;2022-08-27T01:37:09;0.80;;;0.80;;
52540;SDS011;56003;48.556;9.370;2022-08-27T01:43:20;2.20;;;2.00;;
52540;SDS011;56003;48.556;9.370;2022-08-27T01:46:44;1.53;;;1.43;;
52540;SDS011;56003;48.556;9.370;2022-08-27T01:53:16;1.27;;;1.20;;
52540;SDS011;56003;48.556;9.370;2022-08-27T02:10:36;1.57;;;1.37;;
52540;SDS011;56003;48.556;9.370;2022-08-27T02:13:44;0.97;;;0.93;;
52540;SDS011;56003;48.556;9.370;2022-08-27T02:20:06;1.23;;;1.13;;
52540;SDS011;56003;48.556;9.370;2022-08-27T02:22:48;2.10;;;1.77;;
52540;SDS011;56003;48.556;9.370;2022-08-27T02:25:14;2.30;;;2.10;;
52540;SDS011;56003;48.556;9.370;2022-08-27T02:27:40;3.63;;;3.33;;
52540;SDS011;56003;48.556;9.370;2022-08-27T02:30:10;1.70;;;1.60;;
52540;SDS011;56003;48.556;9.370;2022-08-27T02:32:37;3.10;;;2.50;;
52540;SDS011;56003;48.556;9.370;2022-08-27T02:35:03;2.67;;;2.47;;
52540;SDS011;56003;48.556;9.370;2022-08-27T02:37:29;3.30;;;2.13;;
52540;SDS011;56003;48.556;9.370;2022-08-27T02:39:58;3.10;;;2.90;;
52540;SDS011;56003;48.556;9.370;2022-08-27T02:42:25;2.50;;;2.27;;
52540;SDS011;56003;48.556;9.370;2022-08-27T02:44:51;2.57;;;2.40;;
52540;SDS011;56003;48.556;9.370;2022-08-27T02:47:22;2.30;;;2.10;;
52540;SDS011;56003;48.556;9.370;2022-08-27T02:49:55;2.70;;;2.43;;
52540;SDS011;56003;48.556;9.370;2022-08-27T02:52:23;2.37;;;2.17;;
52540;SDS011;56003;48.556;9.370;2022-08-27T02:55:00;2.40;;;2.20;;
52540;SDS011;56003;48.556;9.370;2022-08-27T02:57:26;4.40;;;4.00;;
52540;SDS011;56003;48.556;9.370;2022-08-27T02:59:54;2.17;;;1.97;;
52540;SDS011;56003;48.556;9.370;2022-08-27T03:02:22;2.57;;;2.40;;
52540;SDS011;56003;48.556;9.370;2022-08-27T03:04:51;2.67;;;2.47;;
52540;SDS011;56003;48.556;9.370;2022-08-27T03:07:16;4.33;;;4.00;;
52540;SDS011;56003;48.556;9.370;2022-08-27T03:09:42;3.43;;;2.00;;
52540;SDS011;56003;48.556;9.370;2022-08-27T03:12:10;2.63;;;2.43;;
52540;SDS011;56003;48.556;9.370;2022-08-27T03:14:36;2.60;;;2.40;;
52540;SDS011;56003;48.556;9.370;2022-08-27T03:17:11;1.83;;;1.60;;
52540;SDS011;56003;48.556;9.370;2022-08-27T03:19:55;2.67;;;1.50;;
52540;SDS011;56003;48.556;9.370;2022-08-27T03:22:28;2.30;;;2.13;;
52540;SDS011;56003;48.556;9.370;2022-08-27T03:24:56;2.47;;;2.27;;
52540;SDS011;56003;48.556;9.370;2022-08-27T03:27:25;1.57;;;1.47;;
52540;SDS011;56003;48.556;9.370;2022-08-27T03:29:50;2.63;;;2.03;;
52540;SDS011;56003;48.556;9.370;2022-08-27T03:32:16;1.37;;;1.20;;
52540;SDS011;56003;48.556;9.370;2022-08-27T03:34:41;1.80;;;1.63;;
52540;SDS011;56003;48.556;9.370;2022-08-27T03:37:19;2.60;;;2.23;;
52540;SDS011;56003;48.556;9.370;2022-08-27T03:39:44;4.73;;;3.10;;
52540;SDS011;56003;48.556;9.370;2022-08-27T03:42:28;2.53;;;2.30;;
52540;SDS011;56003;48.556;9.370;2022-08-27T03:44:56;4.00;;;3.60;;
52540;SDS011;56003;48.556;9.370;2022-08-27T03:47:25;1.63;;;1.53;;
52540;SDS011;56003;48.556;9.370;2022-08-27T03:49:50;2.27;;;2.00;;
52540;SDS011;56003;48.556;9.370;2022-08-27T03:52:18;2.73;;;1.93;;
52540;SDS011;56003;48.556;9.370;2022-08-27T03:54:44;4.50;;;3.70;;
52540;SDS011;56003;48.556;9.370;2022-08-27T03:57:10;4.70;;;2.20;;
52540;SDS011;56003;48.556;9.370;2022-08-27T03:59:36;6.23;;;5.63;;
52540;SDS011;56003;48.556;9.370;2022-08-27T04:02:04;2.80;;;2.53;;
52540;SDS011;56003;48.556;9.370;2022-08-27T04:04:32;2.60;;;2.40;;
52540;SDS011;56003;48.556;9.370;2022-08-27T04:07:01;2.63;;;2.33;;
52540;SDS011;56003;48.556;9.370;2022-08-27T04:09:31;2.80;;;2.17;;
52540;SDS011;56003;48.556;9.370;2022-08-27T04:11:57;4.53;;;2.93;;
52540;SDS011;56003;48.556;9.370;2022-08-27T04:14:22;3.00;;;2.80;;
52540;SDS011;56003;48.556;9.370;2022-08-27T04:16:54;2.60;;;2.30;;
52540;SDS011;56003;48.556;9.370;2022-08-27T04:19:23;2.83;;;1.90;;
52540;SDS011;56003;48.556;9.370;2022-08-27T04:21:49;3.23;;;2.10;;
52540;SDS011;56003;48.556;9.370;2022-08-27T04:24:22;2.90;;;1.50;;
52540;SDS011;56003;48.556;9.370;2022-08-27T04:26:47;2.90;;;2.70;;
52540;SDS011;56003;48.556;9.370;2022-08-27T04:29:13;2.50;;;2.07;;
52540;SDS011;56003;48.556;9.370;2022-08-27T04:31:38;2.57;;;2.37;;
52540;SDS011;56003;48.556;9.370;2022-08-27T04:34:04;1.93;;;1.50;;
52540;SDS011;56003;48.556;9.370;2022-08-27T04:36:31;2.13;;;1.97;;
52540;SDS011;56003;48.556;9.370;2022-08-27T04:38:57;2.37;;;2.17;;
52540;SDS011;56003;48.556;9.370;2022-08-27T04:41:22;4.40;;;2.40;;
52540;SDS011;56003;48.556;9.370;2022-08-27T04:43:55;3.60;;;3.30;;
52540;SDS011;56003;48.556;9.370;2022-08-27T04:49:11;4.43;;;3.13;;
52540;SDS011;56003;48.556;9.370;2022-08-27T04:51:40;5.03;;;4.63;;
52540;SDS011;56003;48.556;9.370;2022-08-27T04:54:09;3.47;;;2.30;;
52540;SDS011;56003;48.556;9.370;2022-08-27T04:56:38;3.07;;;2.60;;
52540;SDS011;56003;48.556;9.370;2022-08-27T04:59:09;3.63;;;3.43;;
52540;SDS011;56003;48.556;9.370;2022-08-27T05:01:37;2.43;;;2.23;;
52540;SDS011;56003;48.556;9.370;2022-08-27T05:04:06;4.40;;;4.00;;
52540;SDS011;56003;48.556;9.370;2022-08-27T05:06:39;2.47;;;1.80;;
52540;SDS011;56003;48.556;9.370;2022-08-27T05:09:09;3.17;;;2.57;;
52540;SDS011;56003;48.556;9.370;2022-08-27T05:11:36;3.10;;;2.70;;
52540;SDS011;56003;48.556;9.370;2022-08-27T05:14:05;3.10;;;2.50;;
52540;SDS011;56003;48.556;9.370;2022-08-27T05:16:32;3.70;;;2.80;;
52540;SDS011;56003;48.556;9.370;2022-08-27T05:19:00;3.70;;;3.07;;
52540;SDS011;56003;48.556;9.370;2022-08-27T05:21:28;2.77;;;2.57;;
52540;SDS011;56003;48.556;9.370;2022-08-27T05:23:57;3.63;;;3.33;;
52540;SDS011;56003;48.556;9.370;2022-08-27T05:26:34;2.20;;;2.00;;
52540;SDS011;56003;48.556;9.370;2022-08-27T05:29:03;2.77;;;2.57;;
52540;SDS011;56003;48.556;9.370;2022-08-27T05:31:30;5.30;;;4.33;;
52540;SDS011;56003;48.556;9.370;2022-08-27T05:33:59;4.87;;;4.47;;
52540;SDS011;56003;48.556;9.370;2022-08-27T05:36:35;4.50;;;3.70;;
52540;SDS011;56003;48.556;9.370;2022-08-27T05:39:02;6.80;;;4.40;;
52540;SDS011;56003;48.556;9.370;2022-08-27T05:41:30;3.23;;;2.93;;
52540;SDS011;56003;48.556;9.370;2022-08-27T05:44:04;2.10;;;1.83;;
52540;SDS011;56003;48.556;9.370;2022-08-27T05:46:33;5.20;;;3.37;;
52540;SDS011;56003;48.556;9.370;2022-08-27T05:49:03;5.23;;;4.60;;
52540;SDS011;56003;48.556;9.370;2022-08-27T05:51:34;3.80;;;2.90;;
52540;SDS011;56003;48.556;9.370;2022-08-27T05:54:06;4.07;;;2.67;;
52540;SDS011;56003;48.556;9.370;2022-08-27T05:56:43;3.20;;;2.90;;
52540;SDS011;56003;48.556;9.370;2022-08-27T05:59:08;2.63;;;1.90;;
52540;SDS011;56003;48.556;9.370;2022-08-27T06:01:58;3.23;;;2.47;;
52540;SDS011;56003;48.556;9.370;2022-08-27T06:04:32;1.30;;;1.20;;
52540;SDS011;56003;48.556;9.370;2022-08-27T06:06:58;3.50;;;3.23;;
52540;SDS011;56003;48.556;9.370;2022-08-27T06:09:42;2.97;;;1.97;;
52540;SDS011;56003;48.556;9.370;2022-08-27T06:12:07;4.63;;;2.73;;
52540;SDS011;56003;48.556;9.370;2022-08-27T06:14:36;2.83;;;2.53;;
52540;SDS011;56003;48.556;9.370;2022-08-27T06:17:02;3.20;;;2.80;;
52540;SDS011;56003;48.556;9.370;2022-08-27T06:19:30;4.47;;;3.33;;
52540;SDS011;56003;48.556;9.370;2022-08-27T06:21:56;3.23;;;2.90;;
52540;SDS011;56003;48.556;9.370;2022-08-27T06:24:23;5.83;;;3.93;;
52540;SDS011;56003;48.556;9.370;2022-08-27T06:26:55;4.90;;;3.40;;
52540;SDS011;56003;48.556;9.370;2022-08-27T06:29:32;3.90;;;3.33;;
52540;SDS011;56003;48.556;9.370;2022-08-27T06:32:03;3.13;;;2.37;;
52540;SDS011;56003;48.556;9.370;2022-08-27T06:34:29;4.17;;;3.30;;
52540;SDS011;56003;48.556;9.370;2022-08-27T06:36:58;2.60;;;2.37;;
52540;SDS011;56003;48.556;9.370;2022-08-27T06:39:35;6.53;;;5.20;;
52540;SDS011;56003;48.556;9.370;2022-08-27T06:42:15;4.80;;;3.30;;
52540;SDS011;56003;48.556;9.370;2022-08-27T06:44:47;4.50;;;4.10;;
52540;SDS011;56003;48.556;9.370;2022-08-27T06:47:15;4.87;;;4.50;;
52540;SDS011;56003;48.556;9.370;2022-08-27T06:49:43;5.17;;;3.60;;
52540;SDS011;56003;48.556;9.370;2022-08-27T06:52:11;6.33;;;4.50;;
52540;SDS011;56003;48.556;9.370;2022-08-27T06:55:15;5.13;;;4.37;;
52540;SDS011;56003;48.556;9.370;2022-08-27T07:08:16;6.30;;;4.77;;
52540;SDS011;56003;48.556;9.370;2022-08-27T07:10:41;5.97;;;3.63;;
52540;SDS011;56003;48.556;9.370;2022-08-27T07:13:10;7.00;;;4.90;;
52540;SDS011;56003;48.556;9.370;2022-08-27T07:15:43;4.77;;;4.33;;
52540;SDS011;56003;48.556;9.370;2022-08-27T07:18:09;5.23;;;4.00;;
52540;SDS011;56003;48.556;9.370;2022-08-27T07:20:46;4.87;;;4.40;;
52540;SDS011;56003;48.556;9.370;2022-08-27T07:24:00;6.70;;;4.23;;
52540;SDS011;56003;48.556;9.370;2022-08-27T07:26:33;3.87;;;3.40;;
52540;SDS011;56003;48.556;9.370;2022-08-27T07:29:10;4.27;;;3.90;;
52540;SDS011;56003;48.556;9.370;2022-08-27T07:31:46;5.27;;;4.10;;
52540;SDS011;56003;48.556;9.370;2022-08-27T07:34:14;5.20;;;3.53;;
52540;SDS011;56003;48.556;9.370;2022-08-27T07:36:40;5.53;;;3.87;;
52540;SDS011;56003;48.556;9.370;2022-08-27T07:39:11;6.80;;;5.17;;
52540;SDS011;56003;48.556;9.370;2022-08-27T07:41:39;4.57;;;4.17;;
52540;SDS011;56003;48.556;9.370;2022-08-27T07:44:26;4.50;;;3.70;;
52540;SDS011;56003;48.556;9.370;2022-08-27T07:46:53;4.70;;;4.20;;
52540;SDS011;56003;48.556;9.370;2022-08-27T07:49:26;5.73;;;5.10;;
52540;SDS011;56003;48.556;9.370;2022-08-27T07:52:34;5.43;;;4.90;;
52540;SDS011;56003;48.556;9.370;2022-08-27T07:54:59;4.40;;;3.97;;
52540;SDS011;56003;48.556;9.370;2022-08-27T07:57:35;5.67;;;4.70;;
52540;SDS011;56003;48.556;9.370;2022-08-27T08:03:08;5.10;;;3.80;;
52540;SDS011;56003;48.556;9.370;2022-08-27T08:05:34;6.40;;;5.80;;
52540;SDS011;56003;48.556;9.370;2022-08-27T08:07:59;5.90;;;5.40;;
52540;SDS011;56003;48.556;9.370;2022-08-27T08:10:25;4.17;;;3.63;;
52540;SDS011;56003;48.556;9.370;2022-08-27T08:12:51;6.17;;;5.57;;
52540;SDS011;56003;48.556;9.370;2022-08-27T08:15:16;6.13;;;4.70;;
52540;SDS011;56003;48.556;9.370;2022-08-27T08:17:43;6.37;;;4.97;;
52540;SDS011;56003;48.556;9.370;2022-08-27T08:20:09;4.77;;;4.13;;
52540;SDS011;56003;48.556;9.370;2022-08-27T08:22:36;9.13;;;5.23;;
52540;SDS011;56003;48.556;9.370;2022-08-27T08:25:02;6.10;;;4.37;;
52540;SDS011;56003;48.556;9.370;2022-08-27T08:27:28;7.57;;;5.60;;
52540;SDS011;56003;48.556;9.370;2022-08-27T08:29:54;7.50;;;6.00;;
52540;SDS011;56003;48.556;9.370;2022-08-27T08:32:19;6.20;;;5.60;;
52540;SDS011;56003;48.556;9.370;2022-08-27T08:34:45;6.87;;;6.00;;
52540;SDS011;56003;48.556;9.370;2022-08-27T08:37:12;6.60;;;5.13;;
52540;SDS011;56003;48.556;9.370;2022-08-27T08:39:39;6.90;;;5.90;;
52540;SDS011;56003;48.556;9.370;2022-08-27T08:42:05;7.43;;;5.43;;
52540;SDS011;56003;48.556;9.370;2022-08-27T08:44:36;5.43;;;5.00;;
52540;SDS011;56003;48.556;9.370;2022-08-27T08:47:25;4.83;;;3.97;;
52540;SDS011;56003;48.556;9.370;2022-08-27T08:53:00;6.87;;;5.70;;
52540;SDS011;56003;48.556;9.370;2022-08-27T08:55:34;6.13;;;5.47;;
52540;SDS011;56003;48.556;9.370;2022-08-27T08:58:11;9.30;;;6.90;;
52540;SDS011;56003;48.556;9.370;2022-08-27T09:00:44;6.70;;;4.70;;
52540;SDS011;56003;48.556;9.370;2022-08-27T09:03:17;7.10;;;6.30;;
52540;SDS011;56003;48.556;9.370;2022-08-27T09:05:44;4.53;;;3.70;;
52540;SDS011;56003;48.556;9.370;2022-08-27T09:08:17;8.40;;;6.83;;
52540;SDS011;56003;48.556;9.370;2022-08-27T09:13:26;7.00;;;6.07;;
52540;SDS011;56003;48.556;9.370;2022-08-27T09:16:03;7.63;;;4.60;;
52540;SDS011;56003;48.556;9.370;2022-08-27T09:18:34;5.07;;;3.70;;
52540;SDS011;56003;48.556;9.370;2022-08-27T09:33:11;4.23;;;3.83;;
52540;SDS011;56003;48.556;9.370;2022-08-27T09:35:40;4.93;;;2.17;;
52540;SDS011;56003;48.556;9.370;2022-08-27T09:38:08;3.00;;;2.80;;
52540;SDS011;56003;48.556;9.370;2022-08-27T09:40:39;2.00;;;1.87;;
52540;SDS011;56003;48.556;9.370;2022-08-27T09:45:45;3.60;;;3.30;;
52540;SDS011;56003;48.556;9.370;2022-08-27T09:48:20;5.70;;;5.20;;
52540;SDS011;56003;48.556;9.370;2022-08-27T09:51:07;3.90;;;3.60;;
52540;SDS011;56003;48.556;9.370;2022-08-27T09:54:02;3.63;;;3.33;;
52540;SDS011;56003;48.556;9.370;2022-08-27T09:59:24;3.27;;;2.33;;
52540;SDS011;56003;48.556;9.370;2022-08-27T10:01:54;2.47;;;2.27;;
52540;SDS011;56003;48.556;9.370;2022-08-27T10:04:32;4.70;;;3.97;;
52540;SDS011;56003;48.556;9.370;2022-08-27T10:07:18;5.27;;;4.77;;
52540;SDS011;56003;48.556;9.370;2022-08-27T10:09:59;3.97;;;2.80;;
52540;SDS011;56003;48.556;9.370;2022-08-27T10:12:39;1.97;;;1.83;;
52540;SDS011;56003;48.556;9.370;2022-08-27T10:15:27;2.07;;;1.90;;
52540;SDS011;56003;48.556;9.370;2022-08-27T10:18:15;3.10;;;2.80;;
52540;SDS011;56003;48.556;9.370;2022-08-27T10:20:54;3.10;;;2.40;;
52540;SDS011;56003;48.556;9.370;2022-08-27T10:23:33;3.80;;;2.80;;
52540;SDS011;56003;48.556;9.370;2022-08-27T10:26:03;3.20;;;2.97;;
52540;SDS011;56003;48.556;9.370;2022-08-27T10:34:08;4.50;;;4.07;;
52540;SDS011;56003;48.556;9.370;2022-08-27T10:39:22;2.97;;;2.13;;
52540;SDS011;56003;48.556;9.370;2022-08-27T10:42:15;1.67;;;1.57;;
52540;SDS011;56003;48.556;9.370;2022-08-27T10:51:59;2.60;;;2.40;;
52540;SDS011;56003;48.556;9.370;2022-08-27T11:07:32;1.60;;;1.50;;
52540;SDS011;56003;48.556;9.370;2022-08-27T11:43:13;2.90;;;2.70;;
52540;SDS011;56003;48.556;9.370;2022-08-27T11:46:30;1.43;;;1.33;;
52540;SDS011;56003;48.556;9.370;2022-08-27T11:50:03;2.13;;;2.00;;
52540;SDS011;56003;48.556;9.370;2022-08-27T11:55:47;1.83;;;1.73;;
52540;SDS011;56003;48.556;9.370;2022-08-27T11:58:36;1.93;;;1.77;;
52540;SDS011;56003;48.556;9.370;2022-08-27T12:01:13;2.40;;;2.23;;
52540;SDS011;56003;48.556;9.370;2022-08-27T12:07:04;2.40;;;2.00;;
52540;SDS011;56003;48.556;9.370;2022-08-27T12:12:47;1.93;;;1.60;;
52540;SDS011;56003;48.556;9.370;2022-08-27T12:15:28;1.27;;;1.10;;
52540;SDS011;56003;48.556;9.370;2022-08-27T12:24:55;1.47;;;1.20;;
52540;SDS011;56003;48.556;9.370;2022-08-27T12:27:47;1.67;;;1.57;;
52540;SDS011;56003;48.556;9.370;2022-08-27T12:30:46;2.07;;;1.97;;
52540;SDS011;56003;48.556;9.370;2022-08-27T12:34:13;2.47;;;2.20;;
52540;SDS011;56003;48.556;9.370;2022-08-27T12:36:40;1.97;;;1.77;;
52540;SDS011;56003;48.556;9.370;2022-08-27T12:39:11;1.47;;;1.37;;
52540;SDS011;56003;48.556;9.370;2022-08-27T12:41:43;1.50;;;1.40;;
52540;SDS011;56003;48.556;9.370;2022-08-27T12:44:13;1.10;;;0.83;;
52540;SDS011;56003;48.556;9.370;2022-08-27T12:46:45;1.47;;;1.37;;
52540;SDS011;56003;48.556;9.370;2022-08-27T12:49:15;2.73;;;2.53;;
52540;SDS011;56003;48.556;9.370;2022-08-27T12:51:52;1.30;;;1.20;;
52540;SDS011;56003;48.556;9.370;2022-08-27T12:54:43;3.13;;;2.03;;
52540;SDS011;56003;48.556;9.370;2022-08-27T12:57:32;2.13;;;1.60;;
52540;SDS011;56003;48.556;9.370;2022-08-27T13:00:13;1.73;;;1.60;;
52540;SDS011;56003;48.556;9.370;2022-08-27T13:05:19;1.80;;;1.60;;
52540;SDS011;56003;48.556;9.370;2022-08-27T13:07:52;0.87;;;0.63;;
52540;SDS011;56003;48.556;9.370;2022-08-27T13:10:27;1.10;;;1.07;;
52540;SDS011;56003;48.556;9.370;2022-08-27T13:13:02;2.20;;;1.40;;
52540;SDS011;56003;48.556;9.370;2022-08-27T13:15:33;1.60;;;1.50;;
52540;SDS011;56003;48.556;9.370;2022-08-27T13:17:59;1.80;;;1.27;;
52540;SDS011;56003;48.556;9.370;2022-08-27T13:20:29;1.73;;;1.37;;
52540;SDS011;56003;48.556;9.370;2022-08-27T13:22:58;1.73;;;1.10;;
52540;SDS011;56003;48.556;9.370;2022-08-27T13:25:34;1.43;;;1.33;;
52540;SDS011;56003;48.556;9.370;2022-08-27T13:28:12;1.13;;;0.90;;
52540;SDS011;56003;48.556;9.370;2022-08-27T13:30:43;1.67;;;1.53;;
52540;SDS011;56003;48.556;9.370;2022-08-27T13:33:29;1.50;;;1.40;;
52540;SDS011;56003;48.556;9.370;2022-08-27T13:35:59;1.43;;;1.27;;
52540;SDS011;56003;48.556;9.370;2022-08-27T13:38:38;0.70;;;0.70;;
52540;SDS011;56003;48.556;9.370;2022-08-27T13:41:26;2.60;;;1.20;;
52540;SDS011;56003;48.556;9.370;2022-08-27T13:43:54;0.97;;;0.90;;
52540;SDS011;56003;48.556;9.370;2022-08-27T13:46:21;1.73;;;1.63;;
52540;SDS011;56003;48.556;9.370;2022-08-27T13:48:51;1.43;;;1.07;;
52540;SDS011;56003;48.556;9.370;2022-08-27T13:51:29;1.17;;;1.03;;
52540;SDS011;56003;48.556;9.370;2022-08-27T13:54:05;1.40;;;1.30;;
52540;SDS011;56003;48.556;9.370;2022-08-27T13:59:34;1.50;;;1.40;;
52540;SDS011;56003;48.556;9.370;2022-08-27T14:05:11;1.77;;;1.67;;
52540;SDS011;56003;48.556;9.370;2022-08-27T14:08:11;1.60;;;1.50;;
52540;SDS011;56003;48.556;9.370;2022-08-27T14:13:41;1.63;;;1.53;;
52540;SDS011;56003;48.556;9.370;2022-08-27T14:16:27;1.40;;;1.30;;
52540;SDS011;56003;48.556;9.370;2022-08-27T14:19:07;1.03;;;1.00;;
52540;SDS011;56003;48.556;9.370;2022-08-27T14:21:36;1.30;;;1.20;;
52540;SDS011;56003;48.556;9.370;2022-08-27T14:24:03;1.73;;;1.63;;
52540;SDS011;56003;48.556;9.370;2022-08-27T14:26:29;1.33;;;1.23;;
52540;SDS011;56003;48.556;9.370;2022-08-27T14:29:12;2.03;;;1.60;;
52540;SDS011;56003;48.556;9.370;2022-08-27T14:32:03;1.10;;;1.00;;
52540;SDS011;56003;48.556;9.370;2022-08-27T14:34:31;1.20;;;1.10;;
52540;SDS011;56003;48.556;9.370;2022-08-27T14:36:58;2.13;;;2.03;;
52540;SDS011;56003;48.556;9.370;2022-08-27T14:39:23;1.50;;;1.30;;
52540;SDS011;56003;48.556;9.370;2022-08-27T14:41:52;1.50;;;1.40;;
52540;SDS011;56003;48.556;9.370;2022-08-27T14:44:17;1.60;;;1.50;;
52540;SDS011;56003;48.556;9.370;2022-08-27T14:46:43;2.23;;;1.60;;
52540;SDS011;56003;48.556;9.370;2022-08-27T14:49:10;2.60;;;1.40;;
52540;SDS011;56003;48.556;9.370;2022-08-27T14:51:39;1.33;;;1.23;;
52540;SDS011;56003;48.556;9.370;2022-08-27T14:54:26;1.17;;;1.07;;
52540;SDS011;56003;48.556;9.370;2022-08-27T14:56:58;1.63;;;1.53;;
52540;SDS011;56003;48.556;9.370;2022-08-27T14:59:33;1.40;;;1.10;;
52540;SDS011;56003;48.556;9.370;2022-08-27T15:02:00;1.60;;;1.50;;
52540;SDS011;56003;48.556;9.370;2022-08-27T15:04:27;1.93;;;1.70;;
52540;SDS011;56003;48.556;9.370;2022-08-27T15:06:53;1.60;;;1.50;;
52540;SDS011;56003;48.556;9.370;2022-08-27T15:09:18;2.20;;;1.77;;
52540;SDS011;56003;48.556;9.370;2022-08-27T15:11:44;1.70;;;1.60;;
52540;SDS011;56003;48.556;9.370;2022-08-27T15:14:13;1.93;;;1.43;;
52540;SDS011;56003;48.556;9.370;2022-08-27T15:16:42;1.10;;;1.10;;
52540;SDS011;56003;48.556;9.370;2022-08-27T15:19:08;1.40;;;1.30;;
52540;SDS011;56003;48.556;9.370;2022-08-27T15:21:36;1.43;;;1.33;;
52540;SDS011;56003;48.556;9.370;2022-08-27T15:24:05;1.40;;;1.23;;
52540;SDS011;56003;48.556;9.370;2022-08-27T15:26:39;2.10;;;1.90;;
52540;SDS011;56003;48.556;9.370;2022-08-27T15:29:04;1.60;;;1.50;;
52540;SDS011;56003;48.556;9.370;2022-08-27T15:31:30;1.50;;;1.40;;
52540;SDS011;56003;48.556;9.370;2022-08-27T15:33:55;2.03;;;1.63;;
52540;SDS011;56003;48.556;9.370;2022-08-27T15:36:23;1.23;;;1.13;;
52540;SDS011;56003;48.556;9.370;2022-08-27T15:38:49;1.60;;;1.10;;
52540;SDS011;56003;48.556;9.370;2022-08-27T15:41:14;1.70;;;1.60;;
52540;SDS011;56003;48.556;9.370;2022-08-27T15:43:40;1.20;;;1.10;;
52540;SDS011;56003;48.556;9.370;2022-08-27T15:46:06;1.50;;;1.40;;
52540;SDS011;56003;48.556;9.370;2022-08-27T15:48:31;1.60;;;1.17;;
52540;SDS011;56003;48.556;9.370;2022-08-27T15:51:03;1.60;;;1.43;;
52540;SDS011;56003;48.556;9.370;2022-08-27T15:53:34;1.63;;;1.53;;
52540;SDS011;56003;48.556;9.370;2022-08-27T15:59:42;2.27;;;2.07;;
52540;SDS011;56003;48.556;9.370;2022-08-27T16:02:13;1.53;;;1.40;;
52540;SDS011;56003;48.556;9.370;2022-08-27T16:05:06;1.63;;;1.13;;
52540;SDS011;56003;48.556;9.370;2022-08-27T16:07:55;1.57;;;1.47;;
52540;SDS011;56003;48.556;9.370;2022-08-27T16:10:21;1.60;;;1.47;;
52540;SDS011;56003;48.556;9.370;2022-08-27T16:12:53;2.37;;;2.17;;
52540;SDS011;56003;48.556;9.370;2022-08-27T16:15:25;2.30;;;2.00;;
52540;SDS011;56003;48.556;9.370;2022-08-27T16:17:57;2.57;;;1.30;;
52540;SDS011;56003;48.556;9.370;2022-08-27T16:20:34;2.10;;;2.00;;
52540;SDS011;56003;48.556;9.370;2022-08-27T16:23:00;1.80;;;1.40;;
52540;SDS011;56003;48.556;9.370;2022-08-27T16:25:26;2.43;;;2.20;;
52540;SDS011;56003;48.556;9.370;2022-08-27T16:27:51;2.47;;;1.60;;
52540;SDS011;56003;48.556;9.370;2022-08-27T16:30:18;1.13;;;1.03;;
52540;SDS011;56003;48.556;9.370;2022-08-27T16:32:47;2.37;;;2.17;;
52540;SDS011;56003;48.556;9.370;2022-08-27T16:35:14;1.00;;;1.00;;
52540;SDS011;56003;48.556;9.370;2022-08-27T16:37:41;1.90;;;1.70;;
52540;SDS011;56003;48.556;9.370;2022-08-27T16:40:09;2.60;;;1.63;;
52540;SDS011;56003;48.556;9.370;2022-08-27T16:42:39;1.37;;;1.27;;
52540;SDS011;56003;48.556;9.370;2022-08-27T16:45:09;1.83;;;1.73;;
52540;SDS011;56003;48.556;9.370;2022-08-27T16:47:36;1.77;;;1.67;;
52540;SDS011;56003;48.556;9.370;2022-08-27T16:50:21;1.30;;;1.10;;
52540;SDS011;56003;48.556;9.370;2022-08-27T16:53:09;2.20;;;2.00;;
52540;SDS011;56003;48.556;9.370;2022-08-27T16:55:40;2.00;;;1.67;;
52540;SDS011;56003;48.556;9.370;2022-08-27T16:58:23;2.03;;;1.87;;
52540;SDS011;56003;48.556;9.370;2022-08-27T17:00:55;1.50;;;1.40;;
52540;SDS011;56003;48.556;9.370;2022-08-27T17:03:23;1.00;;;0.90;;
52540;SDS011;56003;48.556;9.370;2022-08-27T17:05:50;1.50;;;1.40;;
52540;SDS011;56003;48.556;9.370;2022-08-27T17:08:16;1.50;;;1.33;;
52540;SDS011;56003;48.556;9.370;2022-08-27T17:10:44;1.90;;;1.60;;
52540;SDS011;56003;48.556;9.370;2022-08-27T17:13:21;2.23;;;2.03;;
52540;SDS011;56003;48.556;9.370;2022-08-27T17:15:54;1.53;;;1.43;;
52540;SDS011;56003;48.556;9.370;2022-08-27T17:18:25;1.07;;;1.07;;
52540;SDS011;56003;48.556;9.370;2022-08-27T17:20:52;3.30;;;2.60;;
52540;SDS011;56003;48.556;9.370;2022-08-27T17:23:34;2.07;;;1.97;;
52540;SDS011;56003;48.556;9.370;2022-08-27T17:26:05;1.97;;;1.77;;
52540;SDS011;56003;48.556;9.370;2022-08-27T17:28:36;1.63;;;1.50;;
52540;SDS011;56003;48.556;9.370;2022-08-27T17:31:05;2.10;;;1.93;;
52540;SDS011;56003;48.556;9.370;2022-08-27T17:33:36;1.50;;;1.40;;
52540;SDS011;56003;48.556;9.370;2022-08-27T17:36:07;2.33;;;1.43;;
52540;SDS011;56003;48.556;9.370;2022-08-27T17:38:33;0.80;;;0.80;;
52540;SDS011;56003;48.556;9.370;2022-08-27T17:41:25;1.13;;;1.13;;
52540;SDS011;56003;48.556;9.370;2022-08-27T17:44:03;2.10;;;1.80;;
52540;SDS011;56003;48.556;9.370;2022-08-27T17:46:36;2.40;;;2.20;;
52540;SDS011;56003;48.556;9.370;2022-08-27T17:49:09;2.40;;;2.20;;
52540;SDS011;56003;48.556;9.370;2022-08-27T17:51:35;2.17;;;1.50;;
52540;SDS011;56003;48.556;9.370;2022-08-27T17:54:00;3.23;;;2.40;;
52540;SDS011;56003;48.556;9.370;2022-08-27T17:56:35;1.83;;;1.70;;
52540;SDS011;56003;48.556;9.370;2022-08-27T17:59:06;2.43;;;2.23;;
52540;SDS011;56003;48.556;9.370;2022-08-27T18:01:37;1.40;;;1.30;;
52540;SDS011;56003;48.556;9.370;2022-08-27T18:04:11;1.70;;;1.50;;
52540;SDS011;56003;48.556;9.370;2022-08-27T18:06:40;2.00;;;1.90;;
52540;SDS011;56003;48.556;9.370;2022-08-27T18:09:06;1.70;;;1.60;;
52540;SDS011;56003;48.556;9.370;2022-08-27T18:11:32;2.40;;;2.13;;
52540;SDS011;56003;48.556;9.370;2022-08-27T18:14:04;2.47;;;2.33;;
52540;SDS011;56003;48.556;9.370;2022-08-27T18:16:36;3.40;;;2.90;;
52540;SDS011;56003;48.556;9.370;2022-08-27T18:19:15;2.17;;;1.97;;
52540;SDS011;56003;48.556;9.370;2022-08-27T18:21:46;2.10;;;2.00;;
52540;SDS011;56003;48.556;9.370;2022-08-27T18:24:19;1.17;;;1.17;;
52540;SDS011;56003;48.556;9.370;2022-08-27T18:26:51;3.10;;;2.17;;
52540;SDS011;56003;48.556;9.370;2022-08-27T18:29:19;2.00;;;1.90;;
52540;SDS011;56003;48.556;9.370;2022-08-27T18:31:45;2.73;;;2.53;;
52540;SDS011;56003;48.556;9.370;2022-08-27T18:34:16;1.47;;;1.37;;
52540;SDS011;56003;48.556;9.370;2022-08-27T18:36:46;1.60;;;1.50;;
52540;SDS011;56003;48.556;9.370;2022-08-27T18:39:12;1.87;;;1.77;;